Terminal Aerodrome Forecast
Issued by NWS Charleston, WV

Current Version | Previous Version | Graphics & Text | Print | Product List | Glossary On
Versions: 1 2 3 4 5 6 7 8 9 10 11 12 13 14 15 16 17 18 19 20 21 22 23 24 25 26 27
000
FTUS41 KRLX 081700
TAFBKW
TAF
KBKW 081740Z 0818/0918 22014G22KT P6SM SCT040 BKN150
     FM082100 23013G22KT P6SM +SHRA VCTS BKN040CB
      TEMPO 0821/0824 2SM TSRA BKN025CB
     FM090000 25011G18KT 6SM SHRA VCTS OVC040CB
     FM090500 25010G16KT P6SM OVC070
     FM091000 25008KT P6SM BKN090=

USA.gov is the U.S. government's official web portal to all federal, state and local government web resources and services.